Time;durP1;ratioP1;P1;durP2;ratioP2;P2;SDS_P1;SDS_P2;PMS_P1;PMS_P2;Temp;Humidity;BMP_temperature;BMP_pressure;BME280_temperature;BME280_humidity;BME280_pressure;Samples;Min_cycle;Max_cycle;Signal;HPM_P1;HPM_P2
2023/05/04 00:01:02;;;;;;;8.18;5.65;;;12.80;99.90;;;;;;5053331;28;20033;-75
2023/05/04 00:03:28;;;;;;;9.13;5.95;;;12.80;99.90;;;;;;5051959;28;20033;-74
2023/05/04 00:05:54;;;;;;;12.63;5.97;;;12.80;99.90;;;;;;5053631;28;20029;-75
2023/05/04 00:08:20;;;;;;;13.82;6.43;;;12.70;99.90;;;;;;5052957;28;20377;-75
2023/05/04 00:10:45;;;;;;;14.43;5.95;;;12.70;99.90;;;;;;5053510;28;20017;-74
2023/05/04 00:13:11;;;;;;;11.45;5.88;;;12.70;99.90;;;;;;5052955;28;20035;-75
2023/05/04 00:15:37;;;;;;;9.55;5.78;;;12.60;99.90;;;;;;5053611;28;20037;-73
2023/05/04 00:18:03;;;;;;;9.60;5.25;;;12.60;99.90;;;;;;5052722;28;20036;-75
2023/05/04 00:20:28;;;;;;;12.90;5.93;;;12.60;99.90;;;;;;5054153;28;20477;-75
2023/05/04 00:22:54;;;;;;;7.70;6.07;;;12.60;99.90;;;;;;5052672;28;20470;-74
2023/05/04 00:25:20;;;;;;;11.52;6.43;;;12.60;99.90;;;;;;5053189;28;20037;-75
2023/05/04 00:27:45;;;;;;;11.60;6.35;;;12.60;99.90;;;;;;5054244;28;20083;-75
2023/05/04 00:30:11;;;;;;;12.18;5.90;;;12.60;99.90;;;;;;5052715;28;20448;-73
2023/05/04 00:32:37;;;;;;;10.00;6.20;;;12.60;99.90;;;;;;5054037;28;20108;-73
2023/05/04 00:35:03;;;;;;;12.20;6.13;;;12.60;99.90;;;;;;5052498;28;20036;-73
2023/05/04 00:37:28;;;;;;;11.50;5.80;;;12.60;99.90;;;;;;5016163;28;20526;-74
2023/05/04 00:39:54;;;;;;;10.57;5.90;;;12.60;99.90;;;;;;5033669;28;20489;-73
2023/05/04 00:42:20;;;;;;;10.90;6.18;;;12.60;99.90;;;;;;5033223;28;20112;-73
2023/05/04 00:44:45;;;;;;;9.95;6.40;;;12.50;99.90;;;;;;5033210;28;20418;-73
2023/05/04 00:47:12;;;;;;;10.77;6.50;;;12.50;99.90;;;;;;5033057;28;20026;-73
2023/05/04 00:49:38;;;;;;;7.40;6.30;;;12.50;99.90;;;;;;5033483;28;20390;-74
2023/05/04 00:52:04;;;;;;;12.27;6.53;;;12.50;99.90;;;;;;5032362;28;20025;-74
2023/05/04 00:54:31;;;;;;;10.85;6.20;;;12.50;99.90;;;;;;5015539;28;20447;-74
2023/05/04 00:56:57;;;;;;;9.82;6.10;;;12.40;99.90;;;;;;5033346;28;20044;-74
2023/05/04 00:59:23;;;;;;;13.95;7.13;;;12.40;99.90;;;;;;5032872;28;20382;-74
2023/05/04 01:01:49;;;;;;;12.45;6.47;;;12.30;99.90;;;;;;5033398;28;20036;-73
2023/05/04 01:04:15;;;;;;;12.85;6.68;;;12.30;99.90;;;;;;5038464;28;20037;-74
2023/05/04 01:06:47;;;;;;;11.63;6.97;;;12.30;99.90;;;;;;5052504;28;20028;-73
2023/05/04 01:09:18;;;;;;;12.45;6.72;;;12.30;99.90;;;;;;5052602;28;20024;-73
2023/05/04 01:11:53;;;;;;;13.27;6.35;;;12.20;99.90;;;;;;5053314;28;20535;-73
2023/05/04 01:14:21;;;;;;;11.30;6.75;;;12.20;99.90;;;;;;5052037;28;20029;-74
2023/05/04 01:16:47;;;;;;;13.57;7.15;;;12.20;99.90;;;;;;5052818;28;20068;-73
2023/05/04 01:19:13;;;;;;;11.20;6.50;;;12.10;99.90;;;;;;5052508;28;20060;-74
2023/05/04 01:21:38;;;;;;;13.35;6.53;;;12.10;99.90;;;;;;5053008;28;20370;-73
2023/05/04 01:24:05;;;;;;;11.05;6.50;;;12.10;99.90;;;;;;5052525;28;20029;-74
2023/05/04 01:26:38;;;;;;;12.95;7.05;;;12.10;99.90;;;;;;5053015;28;20120;-73
2023/05/04 01:29:08;;;;;;;15.23;6.70;;;12.10;99.90;;;;;;5051922;28;20091;-74
2023/05/04 01:31:37;;;;;;;14.77;7.00;;;12.10;99.90;;;;;;5052423;28;20029;-74
2023/05/04 01:34:03;;;;;;;18.85;7.55;;;12.00;99.90;;;;;;5051211;28;20474;-74
2023/05/04 01:36:29;;;;;;;14.18;7.53;;;11.90;99.90;;;;;;5052257;28;20064;-73
2023/05/04 01:38:58;;;;;;;9.70;6.10;;;11.90;99.90;;;;;;5052393;28;20091;-74
2023/05/04 01:41:25;;;;;;;13.90;7.13;;;12.00;99.90;;;;;;5052193;28;20017;-73
2023/05/04 01:43:53;;;;;;;10.07;6.50;;;11.90;99.90;;;;;;5052560;28;20382;-73
2023/05/04 01:46:19;;;;;;;17.42;8.27;;;11.90;99.90;;;;;;5051959;28;20025;-75
2023/05/04 01:48:45;;;;;;;16.02;6.78;;;11.90;99.90;;;;;;5034733;28;20025;-74
2023/05/04 01:51:10;;;;;;;19.48;7.80;;;11.80;99.90;;;;;;5052253;28;20028;-74
2023/05/04 01:53:36;;;;;;;14.18;7.50;;;11.80;99.90;;;;;;5052590;28;20029;-74
2023/05/04 01:56:02;;;;;;;10.57;6.63;;;11.80;99.90;;;;;;5052359;28;20374;-75
2023/05/04 01:58:27;;;;;;;11.43;6.57;;;11.70;99.90;;;;;;5052456;28;20096;-73
2023/05/04 02:00:53;;;;;;;12.15;7.47;;;11.70;99.90;;;;;;5052638;28;20122;-73
2023/05/04 02:03:19;;;;;;;10.52;7.47;;;11.60;99.90;;;;;;5051700;28;20021;-74
2023/05/04 02:05:45;;;;;;;12.15;7.35;;;11.60;99.90;;;;;;5041509;28;20043;-74
2023/05/04 02:08:11;;;;;;;15.32;8.88;;;11.50;99.90;;;;;;5051922;28;20032;-73
2023/05/04 02:10:37;;;;;;;17.17;7.40;;;11.40;99.90;;;;;;5052492;28;20037;-74
2023/05/04 02:13:02;;;;;;;15.10;8.13;;;11.50;99.90;;;;;;5051957;28;20518;-74
2023/05/04 02:15:28;;;;;;;16.75;8.90;;;11.50;99.90;;;;;;5051824;28;20040;-74
2023/05/04 02:17:54;;;;;;;12.13;8.23;;;11.40;99.90;;;;;;5055982;28;20027;-74
2023/05/04 02:20:19;;;;;;;15.55;8.65;;;11.40;99.90;;;;;;5055527;28;20025;-73
2023/05/04 02:22:45;;;;;;;15.48;8.70;;;11.30;99.90;;;;;;5054835;28;20025;-74
2023/05/04 02:25:11;;;;;;;17.92;9.00;;;11.40;99.90;;;;;;5055733;28;20052;-74
2023/05/04 02:27:37;;;;;;;15.90;9.02;;;11.30;99.90;;;;;;5056465;28;20033;-73
2023/05/04 02:30:03;;;;;;;16.40;8.80;;;11.40;99.90;;;;;;5056419;28;20079;-73
2023/05/04 02:32:29;;;;;;;15.18;8.68;;;11.40;99.90;;;;;;5056147;28;20136;-74
2023/05/04 02:34:56;;;;;;;17.77;9.27;;;11.40;99.90;;;;;;5055768;28;20056;-75
2023/05/04 02:37:22;;;;;;;12.88;8.82;;;11.40;99.90;;;;;;5055033;28;20463;-74
2023/05/04 02:39:48;;;;;;;17.83;9.75;;;11.30;99.90;;;;;;5054603;28;20454;-74
2023/05/04 02:42:13;;;;;;;15.05;9.18;;;11.30;99.90;;;;;;5055300;28;20035;-74
2023/05/04 02:44:39;;;;;;;17.48;9.32;;;11.40;99.90;;;;;;5056134;28;20063;-74
2023/05/04 02:47:05;;;;;;;13.73;9.10;;;11.30;99.90;;;;;;5055891;28;20466;-74
2023/05/04 02:49:31;;;;;;;10.35;7.88;;;11.30;99.90;;;;;;5055955;28;20021;-73
2023/05/04 02:51:56;;;;;;;17.42;9.57;;;11.30;99.90;;;;;;5054634;28;20040;-73
2023/05/04 02:54:22;;;;;;;18.25;10.20;;;11.30;99.90;;;;;;5055176;28;20082;-73
2023/05/04 02:56:48;;;;;;;16.00;9.60;;;11.30;99.90;;;;;;5055748;28;20044;-74
2023/05/04 02:59:14;;;;;;;15.07;9.18;;;11.30;99.90;;;;;;5054547;28;20079;-73
2023/05/04 03:01:39;;;;;;;15.75;9.70;;;11.30;99.90;;;;;;5056051;28;20040;-74
2023/05/04 03:04:06;;;;;;;20.02;9.25;;;11.20;99.90;;;;;;5055465;28;20025;-74
2023/05/04 03:06:32;;;;;;;16.30;8.95;;;11.10;99.90;;;;;;5054569;28;20195;-73
2023/05/04 03:08:58;;;;;;;18.60;9.25;;;11.10;99.90;;;;;;5055430;28;20518;-73
2023/05/04 03:11:24;;;;;;;18.55;8.68;;;11.10;99.90;;;;;;5054595;28;20498;-73
2023/05/04 03:13:50;;;;;;;22.52;9.85;;;11.10;99.90;;;;;;5054500;28;20059;-73
2023/05/04 03:16:16;;;;;;;19.27;8.77;;;11.00;99.90;;;;;;5054553;28;20393;-75
2023/05/04 03:18:42;;;;;;;16.13;8.57;;;11.00;99.90;;;;;;5055158;28;20096;-74
2023/05/04 03:21:08;;;;;;;18.00;9.43;;;11.00;99.90;;;;;;5055042;28;20063;-75
2023/05/04 03:23:33;;;;;;;18.73;9.60;;;11.00;99.90;;;;;;5054936;28;20099;-75
2023/05/04 03:25:59;;;;;;;18.20;10.55;;;11.00;99.90;;;;;;5055140;28;20082;-74
2023/05/04 03:28:25;;;;;;;17.33;9.05;;;11.00;99.90;;;;;;5053419;28;20053;-75
2023/05/04 03:30:51;;;;;;;16.73;9.57;;;11.00;99.90;;;;;;5055034;28;20103;-74
2023/05/04 03:33:16;;;;;;;19.50;9.00;;;10.90;99.90;;;;;;5054561;28;20021;-74
2023/05/04 03:35:42;;;;;;;18.77;10.07;;;10.90;99.90;;;;;;5054860;28;20466;-74
2023/05/04 03:38:09;;;;;;;17.08;9.45;;;11.00;99.90;;;;;;5054455;28;20028;-76
2023/05/04 03:40:35;;;;;;;21.88;9.55;;;11.00;99.90;;;;;;5054465;28;20025;-74
2023/05/04 03:43:01;;;;;;;16.60;9.48;;;11.00;99.90;;;;;;5054438;28;20036;-73
2023/05/04 03:45:27;;;;;;;19.63;9.45;;;11.00;99.90;;;;;;5054229;28;20060;-73
2023/05/04 03:47:55;;;;;;;18.90;9.52;;;11.00;99.90;;;;;;5053538;28;20096;-74
2023/05/04 03:50:21;;;;;;;14.75;8.90;;;11.10;99.90;;;;;;5052400;28;20039;-73
2023/05/04 03:52:48;;;;;;;18.80;9.48;;;11.00;99.90;;;;;;5054717;28;20031;-73
2023/05/04 03:55:14;;;;;;;21.60;9.68;;;11.10;99.90;;;;;;5053782;28;20045;-74
2023/05/04 03:57:40;;;;;;;17.35;10.02;;;11.10;99.90;;;;;;5054183;28;20040;-73
2023/05/04 04:00:06;;;;;;;18.35;10.10;;;11.10;99.90;;;;;;5054388;28;20021;-73
2023/05/04 04:02:32;;;;;;;18.75;10.23;;;11.20;99.90;;;;;;5053965;28;20032;-73
2023/05/04 04:04:58;;;;;;;15.32;10.40;;;11.20;99.90;;;;;;5054529;28;20033;-73
2023/05/04 04:07:24;;;;;;;15.02;10.57;;;11.20;99.90;;;;;;5051457;28;20032;-73
2023/05/04 04:09:51;;;;;;;18.90;11.43;;;11.20;99.90;;;;;;5054045;28;20040;-75
2023/05/04 04:12:18;;;;;;;17.98;10.48;;;11.20;99.90;;;;;;5053628;28;20029;-73
2023/05/04 04:14:44;;;;;;;20.75;11.40;;;11.20;99.90;;;;;;5054141;28;20115;-73
2023/05/04 04:17:10;;;;;;;16.25;10.93;;;11.20;99.90;;;;;;5053985;28;20104;-73
2023/05/04 04:19:35;;;;;;;14.73;10.73;;;11.20;99.90;;;;;;5053101;28;20032;-73
2023/05/04 04:22:01;;;;;;;15.45;10.18;;;11.20;99.90;;;;;;5053850;28;20032;-72
2023/05/04 04:24:27;;;;;;;16.90;10.07;;;11.20;99.90;;;;;;5053208;28;20477;-73
2023/05/04 04:26:53;;;;;;;15.38;9.85;;;11.20;99.90;;;;;;5052688;28;20040;-72
2023/05/04 04:29:18;;;;;;;17.70;8.82;;;11.20;99.90;;;;;;5053093;28;20049;-73
2023/05/04 04:31:44;;;;;;;17.38;10.05;;;11.20;99.90;;;;;;5053883;28;20025;-73
2023/05/04 04:34:10;;;;;;;11.90;9.50;;;11.10;99.90;;;;;;5053852;28;20092;-73
2023/05/04 04:36:35;;;;;;;20.55;10.52;;;11.20;99.90;;;;;;5051713;28;20033;-73
2023/05/04 04:39:04;;;;;;;16.83;10.15;;;11.10;99.90;;;;;;5051612;28;20032;-73
2023/05/04 04:41:29;;;;;;;15.75;9.48;;;11.10;99.90;;;;;;5015239;28;20080;-73
2023/05/04 04:43:55;;;;;;;14.25;9.65;;;11.10;99.90;;;;;;5033845;28;20030;-74
2023/05/04 04:46:21;;;;;;;14.70;8.73;;;11.20;99.90;;;;;;5033316;28;20431;-74
2023/05/04 04:48:47;;;;;;;17.05;9.23;;;11.10;99.90;;;;;;5033381;28;20036;-74
2023/05/04 04:51:12;;;;;;;16.85;9.18;;;11.10;99.90;;;;;;5033200;28;20025;-75
2023/05/04 04:53:38;;;;;;;14.00;8.65;;;11.00;99.90;;;;;;5033131;28;20072;-74
2023/05/04 04:56:06;;;;;;;14.98;9.05;;;11.00;99.90;;;;;;5033415;28;20571;-74
2023/05/04 04:58:32;;;;;;;17.08;9.32;;;10.90;99.90;;;;;;5032555;28;20455;-74
2023/05/04 05:00:59;;;;;;;15.43;8.20;;;10.90;99.90;;;;;;5033409;28;20112;-73
2023/05/04 05:03:25;;;;;;;17.55;8.93;;;10.90;99.90;;;;;;5032703;28;20025;-74
2023/05/04 05:05:50;;;;;;;14.27;9.02;;;10.90;99.90;;;;;;5033108;28;20037;-74
2023/05/04 05:08:16;;;;;;;15.90;8.82;;;11.00;99.90;;;;;;5038874;28;20033;-75
2023/05/04 05:10:42;;;;;;;11.23;8.10;;;11.00;99.90;;;;;;5052781;28;20112;-73
2023/05/04 05:13:08;;;;;;;16.92;8.65;;;11.00;99.90;;;;;;5053457;28;20033;-73
2023/05/04 05:15:34;;;;;;;13.02;8.02;;;11.10;99.90;;;;;;5052478;28;20040;-73
2023/05/04 05:18:00;;;;;;;15.15;8.45;;;11.00;99.90;;;;;;5052600;28;20025;-74
2023/05/04 05:20:26;;;;;;;18.80;8.88;;;11.00;99.90;;;;;;5052431;28;20119;-74
2023/05/04 05:22:51;;;;;;;20.23;10.15;;;11.10;99.90;;;;;;5052592;28;20106;-73
2023/05/04 05:25:17;;;;;;;14.50;9.95;;;11.10;99.90;;;;;;5052578;28;20037;-74
2023/05/04 05:27:43;;;;;;;19.58;9.43;;;11.10;99.90;;;;;;5052630;28;20530;-74
2023/05/04 05:30:10;;;;;;;19.52;9.80;;;11.10;99.90;;;;;;5052383;28;20083;-74
2023/05/04 05:32:36;;;;;;;18.00;9.70;;;11.10;99.90;;;;;;5052289;28;20025;-74
2023/05/04 05:35:03;;;;;;;24.20;9.75;;;11.10;99.90;;;;;;5052696;28;20480;-73
2023/05/04 05:37:29;;;;;;;16.00;8.75;;;11.10;99.90;;;;;;5034610;28;20056;-74
2023/05/04 05:39:55;;;;;;;15.07;8.20;;;11.20;99.90;;;;;;5051558;28;20025;-74
2023/05/04 05:42:21;;;;;;;15.80;9.07;;;11.20;99.90;;;;;;5051950;28;20025;-74
2023/05/04 05:44:47;;;;;;;19.58;8.65;;;11.20;99.90;;;;;;5053141;28;20056;-73
2023/05/04 05:47:13;;;;;;;14.65;8.82;;;11.30;99.90;;;;;;5052618;28;20065;-74
2023/05/04 05:49:40;;;;;;;19.45;9.20;;;11.30;99.90;;;;;;5052174;28;20120;-73
2023/05/04 05:52:05;;;;;;;14.45;8.63;;;11.40;99.90;;;;;;5052383;28;20033;-73
2023/05/04 05:54:31;;;;;;;18.63;9.57;;;11.40;99.90;;;;;;5051799;28;20104;-73
2023/05/04 05:56:57;;;;;;;19.58;10.00;;;11.40;99.90;;;;;;5052165;28;20048;-73
2023/05/04 05:59:23;;;;;;;16.27;9.38;;;11.50;99.90;;;;;;5051910;28;20074;-74
2023/05/04 06:01:49;;;;;;;16.40;9.57;;;11.40;99.90;;;;;;5052294;28;20029;-74
2023/05/04 06:04:15;;;;;;;20.42;10.23;;;11.50;99.90;;;;;;5052219;28;20107;-73
2023/05/04 06:06:41;;;;;;;17.75;10.43;;;11.50;99.90;;;;;;5051704;28;20422;-72
2023/05/04 06:09:06;;;;;;;17.65;9.80;;;11.50;99.90;;;;;;5050313;28;20496;-73
2023/05/04 06:11:32;;;;;;;22.13;10.18;;;11.50;99.90;;;;;;5051512;28;20063;-74
2023/05/04 06:13:58;;;;;;;18.75;10.23;;;11.50;99.90;;;;;;5052144;28;20481;-74
2023/05/04 06:16:24;;;;;;;24.58;10.35;;;11.50;99.90;;;;;;5051480;28;20087;-74
2023/05/04 06:18:50;;;;;;;22.02;10.95;;;11.50;99.90;;;;;;5051833;28;20472;-74
2023/05/04 06:21:16;;;;;;;21.30;11.00;;;11.50;99.90;;;;;;5051652;28;20029;-74
2023/05/04 06:23:43;;;;;;;23.77;11.45;;;11.50;99.90;;;;;;5049828;28;20108;-74
2023/05/04 06:26:08;;;;;;;20.73;10.75;;;11.50;99.90;;;;;;5051745;28;20021;-74
2023/05/04 06:28:34;;;;;;;15.75;10.50;;;11.50;99.90;;;;;;5051136;28;20041;-74
2023/05/04 06:31:01;;;;;;;17.00;10.43;;;11.50;99.90;;;;;;5052059;28;20083;-74
2023/05/04 06:33:27;;;;;;;21.48;10.10;;;11.50;99.90;;;;;;5051808;28;20025;-75
2023/05/04 06:35:53;;;;;;;19.30;10.68;;;11.50;99.90;;;;;;5052104;28;20041;-74
2023/05/04 06:38:19;;;;;;;19.80;9.93;;;11.50;99.90;;;;;;5055325;28;20025;-74
2023/05/04 06:40:45;;;;;;;17.75;9.98;;;11.60;99.90;;;;;;5054911;28;20021;-75
2023/05/04 06:43:10;;;;;;;18.13;9.98;;;11.60;99.90;;;;;;5053848;28;20025;-74
2023/05/04 06:45:38;;;;;;;20.85;10.75;;;11.50;99.90;;;;;;5061163;28;20033;-76
2023/05/04 06:48:04;;;;;;;18.90;10.75;;;11.60;99.90;;;;;;5058667;28;20021;-75
2023/05/04 06:50:32;;;;;;;21.85;10.50;;;11.60;99.90;;;;;;5056437;28;20024;-74
2023/05/04 06:53:07;;;;;;;20.30;11.10;;;11.60;99.90;;;;;;5057069;28;20068;-75
2023/05/04 06:55:34;;;;;;;23.15;10.25;;;11.60;99.90;;;;;;5055044;28;20115;-74
2023/05/04 06:58:00;;;;;;;20.30;11.25;;;11.70;99.90;;;;;;5053701;28;20028;-74
2023/05/04 07:00:26;;;;;;;17.27;10.27;;;11.70;99.90;;;;;;5054802;28;20029;-74
2023/05/04 07:02:52;;;;;;;14.18;10.10;;;11.70;99.90;;;;;;5054873;28;20030;-72
2023/05/04 07:05:20;;;;;;;16.38;9.88;;;11.80;99.90;;;;;;5058708;28;20037;-74
2023/05/04 07:07:46;;;;;;;17.70;10.27;;;11.80;99.90;;;;;;5055928;28;20021;-74
2023/05/04 07:10:13;;;;;;;21.45;10.15;;;11.90;99.90;;;;;;5053738;28;20374;-74
2023/05/04 07:12:40;;;;;;;14.75;10.35;;;11.90;99.90;;;;;;5055128;28;20025;-74
2023/05/04 07:15:07;;;;;;;23.08;10.90;;;12.00;99.90;;;;;;5055539;28;20433;-73
2023/05/04 07:17:33;;;;;;;18.40;9.73;;;12.00;99.90;;;;;;5054367;28;20032;-73
2023/05/04 07:20:03;;;;;;;19.60;10.85;;;12.10;99.90;;;;;;5055168;28;20028;-74
2023/05/04 07:22:30;;;;;;;19.70;9.80;;;12.10;99.90;;;;;;5054348;28;20470;-74
2023/05/04 07:24:59;;;;;;;13.38;9.63;;;12.10;99.90;;;;;;5055159;28;20366;-73
2023/05/04 07:27:25;;;;;;;14.00;8.55;;;12.10;99.90;;;;;;5053258;28;20040;-74
2023/05/04 07:29:51;;;;;;;12.48;8.82;;;12.10;99.90;;;;;;5054459;28;20089;-73
2023/05/04 07:32:17;;;;;;;17.88;9.20;;;12.10;99.90;;;;;;5054702;28;20055;-73
2023/05/04 07:34:44;;;;;;;21.52;9.57;;;12.10;99.90;;;;;;5054090;28;20050;-73
2023/05/04 07:37:09;;;;;;;14.75;9.35;;;12.10;99.90;;;;;;5054649;28;20039;-73
2023/05/04 07:39:35;;;;;;;21.52;9.55;;;12.10;99.90;;;;;;5053930;28;20021;-73
2023/05/04 07:42:05;;;;;;;19.90;9.40;;;12.00;99.90;;;;;;5052429;28;20482;-73
2023/05/04 07:44:31;;;;;;;14.90;9.25;;;12.20;99.90;;;;;;5033990;28;20032;-73
2023/05/04 07:46:58;;;;;;;18.08;9.60;;;12.20;99.90;;;;;;5034908;28;20445;-73
2023/05/04 07:49:24;;;;;;;17.83;9.20;;;12.20;99.90;;;;;;5034278;28;20018;-74
2023/05/04 07:51:50;;;;;;;17.98;9.90;;;12.20;99.90;;;;;;5033833;28;20094;-73
2023/05/04 07:54:16;;;;;;;15.75;9.45;;;12.20;99.90;;;;;;5016442;28;20421;-73
2023/05/04 07:56:41;;;;;;;19.20;8.57;;;12.30;99.90;;;;;;5033523;28;20463;-74
2023/05/04 07:59:07;;;;;;;17.85;9.32;;;12.30;99.90;;;;;;5034028;28;20144;-73
2023/05/04 08:01:33;;;;;;;18.35;9.60;;;12.40;99.90;;;;;;5033205;28;20036;-73
2023/05/04 08:03:59;;;;;;;18.65;9.52;;;12.40;99.90;;;;;;5034035;28;20022;-73
2023/05/04 08:06:25;;;;;;;18.05;8.80;;;12.40;99.90;;;;;;5033709;28;20033;-73
2023/05/04 08:08:50;;;;;;;17.50;8.68;;;12.40;99.90;;;;;;5033234;28;20533;-73
2023/05/04 08:11:16;;;;;;;14.50;8.20;;;12.40;99.90;;;;;;5039926;28;20083;-73
2023/05/04 08:13:45;;;;;;;12.05;7.45;;;12.20;99.90;;;;;;5052209;28;20029;-73
2023/05/04 08:16:11;;;;;;;13.85;8.73;;;12.30;99.90;;;;;;5053599;28;20087;-73
2023/05/04 08:18:37;;;;;;;18.80;8.43;;;12.40;99.90;;;;;;5053102;28;20037;-75
2023/05/04 08:21:04;;;;;;;17.98;8.65;;;12.40;99.90;;;;;;5053490;28;20060;-73
2023/05/04 08:23:31;;;;;;;17.25;8.15;;;12.40;99.90;;;;;;5053131;28;20183;-74
2023/05/04 08:25:56;;;;;;;17.17;8.65;;;12.40;99.90;;;;;;5053876;28;20029;-73
2023/05/04 08:28:22;;;;;;;22.98;9.55;;;12.50;99.90;;;;;;5053761;28;20029;-74
2023/05/04 08:30:48;;;;;;;26.52;8.95;;;12.40;99.90;;;;;;5053172;28;20274;-74
2023/05/04 08:33:14;;;;;;;19.05;8.48;;;12.30;99.90;;;;;;5053636;28;20025;-74
2023/05/04 08:35:40;;;;;;;19.67;8.50;;;12.30;99.90;;;;;;5053419;28;20356;-73
2023/05/04 08:38:06;;;;;;;19.92;8.10;;;12.30;99.90;;;;;;5054138;28;20116;-74
2023/05/04 08:40:32;;;;;;;18.13;8.55;;;12.40;99.90;;;;;;5052370;28;20130;-73
2023/05/04 08:42:58;;;;;;;13.95;8.23;;;12.50;99.90;;;;;;5053010;28;20489;-73
2023/05/04 08:45:24;;;;;;;19.05;8.85;;;12.60;99.90;;;;;;5052644;28;20374;-74
2023/05/04 08:47:50;;;;;;;17.23;8.90;;;12.50;99.90;;;;;;5053183;28;20379;-73
2023/05/04 08:50:16;;;;;;;20.45;9.20;;;12.50;99.90;;;;;;5053321;28;20025;-74
2023/05/04 08:52:47;;;;;;;19.38;11.27;;;12.60;99.90;;;;;;5051888;28;20424;-74
2023/05/04 08:55:15;;;;;;;25.58;12.23;;;12.80;99.90;;;;;;5052565;28;20123;-73
2023/05/04 08:57:42;;;;;;;100.18;33.33;;;12.90;99.90;;;;;;5051482;28;20032;-73
2023/05/04 09:00:11;;;;;;;29.63;13.88;;;13.10;99.90;;;;;;5051984;28;20028;-73
2023/05/04 09:02:37;;;;;;;25.30;13.13;;;13.00;99.90;;;;;;5051893;28;20064;-74
2023/05/04 09:05:07;;;;;;;26.45;13.15;;;12.90;99.90;;;;;;5052232;28;20108;-73
2023/05/04 09:07:32;;;;;;;26.70;12.65;;;12.90;99.90;;;;;;5052001;28;20025;-74
2023/05/04 09:09:59;;;;;;;28.38;13.68;;;13.00;99.90;;;;;;5052318;28;20025;-73
2023/05/04 09:12:26;;;;;;;25.45;14.13;;;13.00;99.90;;;;;;5051422;28;20099;-73
2023/05/04 09:14:52;;;;;;;22.35;11.57;;;13.00;99.90;;;;;;5049899;28;20116;-74
2023/05/04 09:17:28;;;;;;;28.50;14.00;;;12.70;99.90;;;;;;5052092;28;20099;-73
2023/05/04 09:19:59;;;;;;;30.63;15.07;;;12.80;99.90;;;;;;5050801;28;20033;-74
2023/05/04 09:22:24;;;;;;;33.00;14.65;;;12.90;99.90;;;;;;5052240;28;20029;-73
2023/05/04 09:24:50;;;;;;;38.28;15.63;;;12.70;99.90;;;;;;5049966;28;20100;-74
2023/05/04 09:27:19;;;;;;;29.33;15.38;;;12.60;99.90;;;;;;5051581;28;20094;-73
2023/05/04 09:29:53;;;;;;;32.55;15.63;;;12.50;99.90;;;;;;5051038;28;20052;-74
2023/05/04 09:32:18;;;;;;;33.65;15.30;;;12.50;99.90;;;;;;5052011;28;20060;-74
2023/05/04 09:34:52;;;;;;;36.75;15.40;;;12.50;99.90;;;;;;5051106;28;20057;-74
2023/05/04 09:37:20;;;;;;;23.25;13.90;;;12.70;99.90;;;;;;5051998;28;20040;-74
2023/05/04 09:40:04;;;;;;;31.67;15.45;;;12.80;99.90;;;;;;5051405;28;20033;-74
2023/05/04 09:42:31;;;;;;;34.58;14.93;;;12.90;99.90;;;;;;5051046;28;20075;-75
2023/05/04 09:45:05;;;;;;;31.65;15.45;;;13.00;99.90;;;;;;5051614;28;20441;-73
2023/05/04 09:47:32;;;;;;;31.63;16.52;;;12.90;99.90;;;;;;5051114;28;20021;-75
2023/05/04 09:49:58;;;;;;;29.98;15.30;;;13.00;99.90;;;;;;5051509;28;20033;-74
2023/05/04 09:52:27;;;;;;;29.35;15.02;;;12.90;99.90;;;;;;5051391;28;20493;-74
2023/05/04 09:54:53;;;;;;;30.63;15.85;;;12.90;99.90;;;;;;5049666;28;20039;-74
2023/05/04 09:57:21;;;;;;;28.90;15.80;;;12.90;99.90;;;;;;5050395;28;20025;-74
2023/05/04 09:59:48;;;;;;;35.75;16.13;;;12.90;99.90;;;;;;5051431;28;20033;-73
2023/05/04 10:02:13;;;;;;;28.88;16.42;;;12.80;99.90;;;;;;5051592;28;20032;-74
2023/05/04 10:04:42;;;;;;;34.90;17.20;;;12.80;99.90;;;;;;5051511;28;20029;-75
2023/05/04 10:07:08;;;;;;;32.90;16.38;;;12.70;99.90;;;;;;5051842;28;20093;-74
2023/05/04 10:09:33;;;;;;;32.47;15.60;;;12.70;99.90;;;;;;5050959;28;20099;-75
2023/05/04 10:12:02;;;;;;;35.35;16.75;;;12.70;99.90;;;;;;5051356;28;20067;-74
2023/05/04 10:14:35;;;;;;;30.77;16.75;;;12.90;99.90;;;;;;5050664;28;20447;-75
2023/05/04 10:17:29;;;;;;;28.77;16.27;;;13.00;99.90;;;;;;5051694;28;20029;-75
2023/05/04 10:20:13;;;;;;;36.08;16.75;;;13.00;99.90;;;;;;5051979;28;20086;-74
2023/05/04 10:22:57;;;;;;;33.92;17.70;;;13.10;99.90;;;;;;5051216;28;20045;-74
2023/05/04 10:26:21;;;;;;;39.58;18.33;;;13.10;99.90;;;;;;5051650;28;20032;-74
2023/05/04 10:28:49;;;;;;;39.58;17.90;;;13.00;99.90;;;;;;4969005;28;20166;-74
2023/05/04 10:31:16;;;;;;;31.77;16.83;;;13.00;99.90;;;;;;4970231;28;20039;-74
2023/05/04 10:33:42;;;;;;;30.88;16.75;;;13.10;99.90;;;;;;5020196;28;20037;-74
2023/05/04 10:36:10;;;;;;;30.75;17.63;;;13.10;99.90;;;;;;5050910;28;20049;-74
2023/05/04 10:38:38;;;;;;;30.73;17.05;;;13.00;99.90;;;;;;5053694;28;20116;-73
2023/05/04 10:41:16;;;;;;;32.05;17.50;;;12.90;99.90;;;;;;5054680;28;20029;-74
2023/05/04 10:43:47;;;;;;;29.05;17.88;;;12.90;99.90;;;;;;5053502;28;20036;-73
2023/05/04 10:46:20;;;;;;;39.30;17.27;;;12.90;99.90;;;;;;5040386;28;20032;-73
2023/05/04 10:48:46;;;;;;;;;;;12.90;99.90;;;;;;5037220;28;20457;-73
2023/05/04 10:51:24;;;;;;;31.73;17.63;;;12.80;99.90;;;;;;5054985;28;19912;-73
2023/05/04 10:53:51;;;;;;;33.72;17.33;;;12.90;99.90;;;;;;5054177;28;20033;-73
2023/05/04 10:56:24;;;;;;;41.72;18.98;;;13.00;99.90;;;;;;5055287;28;20037;-74
2023/05/04 10:58:50;;;;;;;35.72;17.77;;;13.00;99.90;;;;;;5036945;28;20070;-73
2023/05/04 11:01:16;;;;;;;32.55;17.13;;;12.90;99.90;;;;;;5053948;28;20092;-72
2023/05/04 11:03:43;;;;;;;38.45;17.95;;;13.00;99.90;;;;;;5054267;28;20029;-74
2023/05/04 11:06:19;;;;;;;34.88;17.58;;;12.90;99.90;;;;;;5054870;28;20041;-73
2023/05/04 11:08:48;;;;;;;31.00;17.10;;;12.90;99.90;;;;;;5054731;28;20040;-74
2023/05/04 11:11:14;;;;;;;28.92;16.55;;;13.00;99.90;;;;;;5054319;28;20063;-74
2023/05/04 11:13:46;;;;;;;30.75;16.17;;;13.10;99.90;;;;;;5054515;28;20021;-73
2023/05/04 11:16:13;;;;;;;34.03;14.73;;;13.10;99.90;;;;;;5054342;28;20079;-74
2023/05/04 11:18:40;;;;;;;32.15;16.52;;;12.90;99.90;;;;;;5054441;28;20036;-74
2023/05/04 11:21:07;;;;;;;35.33;16.95;;;13.00;99.90;;;;;;5053643;28;20031;-73
2023/05/04 11:23:33;;;;;;;35.50;16.02;;;13.00;99.90;;;;;;5053675;28;20025;-74
2023/05/04 11:26:07;;;;;;;32.35;15.40;;;13.10;99.90;;;;;;5054839;28;20481;-74
2023/05/04 11:28:33;;;;;;;28.55;16.25;;;12.80;99.90;;;;;;5054110;28;20350;-75
2023/05/04 11:30:59;;;;;;;32.85;17.48;;;12.80;99.90;;;;;;5054754;28;20437;-73
2023/05/04 11:33:25;;;;;;;28.90;16.92;;;12.80;99.90;;;;;;5054615;28;20103;-73
2023/05/04 11:36:00;;;;;;;40.33;16.90;;;12.80;99.90;;;;;;5054051;28;20691;-73
2023/05/04 11:38:26;;;;;;;30.25;17.73;;;12.70;99.90;;;;;;5054737;28;20383;-73
2023/05/04 11:40:51;;;;;;;37.35;17.80;;;12.60;99.90;;;;;;5054186;28;20480;-74
2023/05/04 11:43:18;;;;;;;35.17;17.98;;;12.60;99.90;;;;;;5054709;28;20104;-74
2023/05/04 11:45:47;;;;;;;33.90;17.70;;;12.60;99.90;;;;;;5054001;28;20033;-73
2023/05/04 11:48:13;;;;;;;36.50;17.88;;;12.60;99.90;;;;;;5054022;28;20025;-73
2023/05/04 11:50:39;;;;;;;35.63;18.17;;;12.50;99.90;;;;;;5053372;28;20457;-73
2023/05/04 11:53:12;;;;;;;30.98;17.65;;;12.50;99.90;;;;;;5054504;28;20054;-74
2023/05/04 11:55:39;;;;;;;36.70;19.45;;;12.50;99.90;;;;;;5052832;28;20463;-74
2023/05/04 11:58:06;;;;;;;47.03;18.42;;;12.50;99.90;;;;;;5054315;28;20048;-75
2023/05/04 12:00:43;;;;;;;47.55;20.25;;;12.50;99.90;;;;;;5052780;28;20025;-74
2023/05/04 12:03:11;;;;;;;41.05;19.08;;;12.40;99.90;;;;;;5054161;28;20044;-73
2023/05/04 12:05:37;;;;;;;36.72;19.45;;;12.40;99.90;;;;;;5053652;28;20029;-75
2023/05/04 12:08:06;;;;;;;30.90;17.88;;;12.30;99.90;;;;;;5054127;28;20021;-74
2023/05/04 12:10:33;;;;;;;32.28;19.85;;;12.30;99.90;;;;;;5052651;28;20032;-74
2023/05/04 12:13:00;;;;;;;34.90;18.73;;;12.30;99.90;;;;;;5053976;28;20029;-74
2023/05/04 12:15:30;;;;;;;33.15;19.30;;;12.40;99.90;;;;;;5053644;28;20041;-74
2023/05/04 12:17:57;;;;;;;40.05;19.88;;;12.30;99.90;;;;;;5052115;28;20039;-74
2023/05/04 12:20:26;;;;;;;37.97;18.98;;;12.40;99.90;;;;;;5052801;28;20029;-74
2023/05/04 12:22:56;;;;;;;38.35;20.38;;;12.60;99.90;;;;;;5052975;28;20478;-74
2023/05/04 12:25:25;;;;;;;41.03;20.27;;;12.60;99.90;;;;;;5053549;28;20466;-74
2023/05/04 12:27:52;;;;;;;40.85;19.52;;;12.70;99.90;;;;;;5052959;28;20066;-75
2023/05/04 12:30:17;;;;;;;37.38;18.08;;;12.70;99.90;;;;;;5053341;28;20052;-74
2023/05/04 12:32:43;;;;;;;40.65;19.73;;;12.80;99.90;;;;;;5053112;28;20025;-75